| Date | Time | Temp. (oF) | Dew Point (oF) | Rel. Hum. (%) | Press. (in.) | Wind Dir. | Wind Speed (mph) | Hourly Rainfall (in.) |
|
|---|---|---|---|---|---|---|---|---|---|
| 1 | 01/31 | 00:00 | 15 | 3 | 60 | 30.21 | NNW | 12 | 0.00 |
| 2 | 01/30 | 23:00 | 16 | 3 | 58 | 30.20 | N | 14 | 0.00 |
| 3 | 01/30 | 22:00 | 18 | 7 | 62 | 30.19 | W | 10 | 0.00 |
| 4 | 01/30 | 21:00 | 20 | 8 | 60 | 30.18 | W | 7 | 0.00 |
| 5 | 01/30 | 20:00 | 21 | 9 | 61 | 30.16 | WNW | 8 | 0.00 |
| 6 | 01/30 | 19:00 | 23 | 11 | 60 | 30.12 | NNW | 7 | 0.00 |
| 7 | 01/30 | 18:00 | 25 | 13 | 61 | 30.09 | WNW | 16 | 0.00 |
| 8 | 01/30 | 17:00 | 27 | 14 | 60 | 30.02 | W | 21 | 0.00 |
| 9 | 01/30 | 16:00 | 30 | 17 | 59 | 29.99 | N | 7 | 0.00 |
| 10 | 01/30 | 15:00 | 30 | 18 | 63 | 29.97 | SW | 10 | 0.00 |
| 11 | 01/30 | 14:00 | 32 | 22 | 67 | 29.95 | W | 11 | 0.00 |
| 12 | 01/30 | 13:00 | 34 | 23 | 66 | 29.94 | WNW | 20 | 0.00 |
| 13 | 01/30 | 12:00 | 36 | 24 | 62 | 29.94 | N | 16 | 0.00 |
| 14 | 01/30 | 11:00 | 36 | 24 | 63 | 29.95 | WNW | 16 | 0.00 |
| 15 | 01/30 | 10:00 | 36 | 27 | 71 | 29.94 | W | 11 | 0.00 |
| 16 | 01/30 | 09:00 | 32 | 27 | 82 | 29.94 | WNW | 9 | 0.00 |
| 17 | 01/30 | 08:00 | 30 | 28 | 94 | 29.93 | W | 4 | 0.00 |
| 18 | 01/30 | 07:00 | 30 | 28 | 93 | 29.92 | WNW | 6 | 0.00 |
| 19 | 01/30 | 06:00 | 29 | 26 | 91 | 29.90 | SW | 4 | 0.00 |
| 20 | 01/30 | 05:00 | 29 | 26 | 91 | 29.88 | WNW | 3 | 0.00 |
| 21 | 01/30 | 04:00 | 28 | 25 | 91 | 29.88 | SW | 1 | 0.00 |
| 22 | 01/30 | 03:00 | 29 | 26 | 89 | 29.88 | WNW | 0 | 0.00 |
| 23 | 01/30 | 02:00 | 29 | 25 | 88 | 29.88 | SSE | 0 | 0.00 |
| 24 | 01/30 | 01:00 | 29 | 25 | 87 | 29.90 | SSW | 0 | 0.00 |